sensor_id;sensor_type;location;lat;lon;timestamp;pressure;altitude;pressure_sealevel;temperature;humidity
74680;BME280;63211;48.548;2.704;2022-09-03T00:00:53;100143.16;;;22.72;60.92
74680;BME280;63211;48.548;2.704;2022-09-03T00:03:21;100138.47;;;22.72;61.03
74680;BME280;63211;48.548;2.704;2022-09-03T00:05:55;100149.47;;;22.72;61.05
74680;BME280;63211;48.548;2.704;2022-09-03T00:08:30;100140.41;;;22.72;60.90
74680;BME280;63211;48.548;2.704;2022-09-03T00:11:02;100131.31;;;22.66;60.85
74680;BME280;63211;48.548;2.704;2022-09-03T00:13:36;100134.09;;;22.71;60.75
74680;BME280;63211;48.548;2.704;2022-09-03T00:16:07;100136.00;;;22.71;60.79
74680;BME280;63211;48.548;2.704;2022-09-03T00:18:41;100138.75;;;22.71;60.54
74680;BME280;63211;48.548;2.704;2022-09-03T00:21:11;100137.09;;;22.70;60.80
74680;BME280;63211;48.548;2.704;2022-09-03T00:23:41;100134.63;;;22.68;60.70
74680;BME280;63211;48.548;2.704;2022-09-03T00:26:17;100134.34;;;22.70;60.54
74680;BME280;63211;48.548;2.704;2022-09-03T00:28:52;100133.53;;;22.69;60.52
74680;BME280;63211;48.548;2.704;2022-09-03T00:31:22;100136.28;;;22.69;60.60
74680;BME280;63211;48.548;2.704;2022-09-03T00:33:54;100136.53;;;22.68;60.69
74680;BME280;63211;48.548;2.704;2022-09-03T00:36:28;100129.94;;;22.69;60.82
74680;BME280;63211;48.548;2.704;2022-09-03T00:38:57;100125.56;;;22.68;60.52
74680;BME280;63211;48.548;2.704;2022-09-03T00:41:30;100128.31;;;22.68;60.74
74680;BME280;63211;48.548;2.704;2022-09-03T00:44:24;100121.97;;;22.67;60.66
74680;BME280;63211;48.548;2.704;2022-09-03T00:46:59;100132.13;;;22.67;60.60
74680;BME280;63211;48.548;2.704;2022-09-03T00:49:35;100134.06;;;22.66;60.67
74680;BME280;63211;48.548;2.704;2022-09-03T00:52:07;100136.78;;;22.66;60.69
74680;BME280;63211;48.548;2.704;2022-09-03T00:54:42;100134.06;;;22.66;60.27
74680;BME280;63211;48.548;2.704;2022-09-03T00:57:27;100135.19;;;22.65;60.25
74680;BME280;63211;48.548;2.704;2022-09-03T01:00:04;100146.94;;;22.66;60.40
74680;BME280;63211;48.548;2.704;2022-09-03T01:02:42;100148.06;;;22.65;60.50
74680;BME280;63211;48.548;2.704;2022-09-03T01:05:24;100148.91;;;22.65;60.48
74680;BME280;63211;48.548;2.704;2022-09-03T01:08:00;100145.59;;;22.63;60.06
74680;BME280;63211;48.548;2.704;2022-09-03T01:10:36;100154.66;;;22.63;60.13
74680;BME280;63211;48.548;2.704;2022-09-03T01:13:13;100152.72;;;22.64;60.40
74680;BME280;63211;48.548;2.704;2022-09-03T01:15:48;100154.66;;;22.63;60.39
74680;BME280;63211;48.548;2.704;2022-09-03T01:18:24;100147.50;;;22.62;60.41
74680;BME280;63211;48.548;2.704;2022-09-03T01:21:09;100150.25;;;22.62;60.34
74680;BME280;63211;48.548;2.704;2022-09-03T01:24:03;100153.81;;;22.63;60.22
74680;BME280;63211;48.548;2.704;2022-09-03T01:26:54;100165.06;;;22.61;60.18
74680;BME280;63211;48.548;2.704;2022-09-03T01:29:28;100161.22;;;22.62;60.17
74680;BME280;63211;48.548;2.704;2022-09-03T01:32:04;100163.16;;;22.62;60.40
74680;BME280;63211;48.548;2.704;2022-09-03T01:34:42;100159.56;;;22.61;60.23
74680;BME280;63211;48.548;2.704;2022-09-03T01:39:47;100155.75;;;22.62;60.13
74680;BME280;63211;48.548;2.704;2022-09-03T01:42:23;100162.59;;;22.60;60.37
74680;BME280;63211;48.548;2.704;2022-09-03T01:45:10;100162.31;;;22.61;60.14
74680;BME280;63211;48.548;2.704;2022-09-03T01:47:51;100159.00;;;22.59;60.20
74680;BME280;63211;48.548;2.704;2022-09-03T01:50:28;100159.84;;;22.60;60.13
74680;BME280;63211;48.548;2.704;2022-09-03T01:53:05;100150.78;;;22.59;60.26
74680;BME280;63211;48.548;2.704;2022-09-03T01:55:43;100152.69;;;22.59;60.12
74680;BME280;63211;48.548;2.704;2022-09-03T01:58:18;100150.78;;;22.59;60.02
74680;BME280;63211;48.548;2.704;2022-09-03T02:00:52;100152.69;;;22.59;59.94
74680;BME280;63211;48.548;2.704;2022-09-03T02:03:23;100147.22;;;22.59;60.10
74680;BME280;63211;48.548;2.704;2022-09-03T02:05:51;100150.22;;;22.57;60.21
74680;BME280;63211;48.548;2.704;2022-09-03T02:08:18;100152.69;;;22.59;60.16
74680;BME280;63211;48.548;2.704;2022-09-03T02:10:47;100153.78;;;22.58;59.96
74680;BME280;63211;48.548;2.704;2022-09-03T02:13:17;100149.41;;;22.57;60.28
74680;BME280;63211;48.548;2.704;2022-09-03T02:15:48;100152.97;;;22.57;60.28
74680;BME280;63211;48.548;2.704;2022-09-03T02:18:18;100162.28;;;22.56;60.07
74680;BME280;63211;48.548;2.704;2022-09-03T02:20:46;100155.72;;;22.57;59.96
74680;BME280;63211;48.548;2.704;2022-09-03T02:23:14;100151.31;;;22.56;60.13
74680;BME280;63211;48.548;2.704;2022-09-03T02:25:44;100152.13;;;22.57;60.23
74680;BME280;63211;48.548;2.704;2022-09-03T02:28:13;100157.88;;;22.55;60.09
74680;BME280;63211;48.548;2.704;2022-09-03T02:30:40;100153.22;;;22.56;60.20
74680;BME280;63211;48.548;2.704;2022-09-03T02:33:08;100157.06;;;22.55;60.15
74680;BME280;63211;48.548;2.704;2022-09-03T02:35:35;100158.72;;;22.56;60.30
74680;BME280;63211;48.548;2.704;2022-09-03T02:38:10;100162.56;;;22.55;60.13
74680;BME280;63211;48.548;2.704;2022-09-03T02:40:37;100161.47;;;22.56;60.36
74680;BME280;63211;48.548;2.704;2022-09-03T02:43:05;100151.56;;;22.55;60.16
74680;BME280;63211;48.548;2.704;2022-09-03T02:45:34;100154.31;;;22.55;60.23
74680;BME280;63211;48.548;2.704;2022-09-03T02:48:03;100155.16;;;22.55;60.16
74680;BME280;63211;48.548;2.704;2022-09-03T02:50:30;100146.09;;;22.55;60.11
74680;BME280;63211;48.548;2.704;2022-09-03T02:52:58;100145.25;;;22.54;60.12
74680;BME280;63211;48.548;2.704;2022-09-03T02:55:25;100150.75;;;22.54;60.29
74680;BME280;63211;48.548;2.704;2022-09-03T02:57:51;100148.00;;;22.54;60.05
74680;BME280;63211;48.548;2.704;2022-09-03T03:00:18;100157.31;;;22.53;60.19
74680;BME280;63211;48.548;2.704;2022-09-03T03:02:44;100144.44;;;22.54;60.08
74680;BME280;63211;48.548;2.704;2022-09-03T03:05:17;100147.19;;;22.54;60.24
74680;BME280;63211;48.548;2.704;2022-09-03T03:07:48;100146.91;;;22.55;60.07
74680;BME280;63211;48.548;2.704;2022-09-03T03:10:15;100139.78;;;22.54;59.81
74680;BME280;63211;48.548;2.704;2022-09-03T03:12:41;100155.41;;;22.54;59.91
74680;BME280;63211;48.548;2.704;2022-09-03T03:15:08;100147.19;;;22.54;60.16
74680;BME280;63211;48.548;2.704;2022-09-03T03:17:35;100152.66;;;22.54;59.97
74680;BME280;63211;48.548;2.704;2022-09-03T03:20:02;100152.66;;;22.54;60.05
74680;BME280;63211;48.548;2.704;2022-09-03T03:22:29;100147.19;;;22.54;60.10
74680;BME280;63211;48.548;2.704;2022-09-03T03:24:57;100144.44;;;22.54;60.14
74680;BME280;63211;48.548;2.704;2022-09-03T03:27:23;100141.13;;;22.52;59.95
74680;BME280;63211;48.548;2.704;2022-09-03T03:29:52;100151.00;;;22.53;59.96
74680;BME280;63211;48.548;2.704;2022-09-03T03:32:19;100148.28;;;22.53;60.00
74680;BME280;63211;48.548;2.704;2022-09-03T03:34:45;100149.94;;;22.54;60.00
74680;BME280;63211;48.548;2.704;2022-09-03T03:37:12;100142.50;;;22.49;59.82
74680;BME280;63211;48.548;2.704;2022-09-03T03:39:38;100145.53;;;22.53;60.16
74680;BME280;63211;48.548;2.704;2022-09-03T03:42:06;100148.53;;;22.51;59.74
74680;BME280;63211;48.548;2.704;2022-09-03T03:44:33;100152.09;;;22.52;59.96
74680;BME280;63211;48.548;2.704;2022-09-03T03:47:00;100147.44;;;22.52;59.75
74680;BME280;63211;48.548;2.704;2022-09-03T03:49:30;100148.53;;;22.51;60.02
74680;BME280;63211;48.548;2.704;2022-09-03T03:51:56;100139.47;;;22.51;60.02
74680;BME280;63211;48.548;2.704;2022-09-03T03:54:23;100143.06;;;22.51;59.76
74680;BME280;63211;48.548;2.704;2022-09-03T03:56:50;100142.22;;;22.51;59.67
74680;BME280;63211;48.548;2.704;2022-09-03T03:59:18;100141.41;;;22.50;60.03
74680;BME280;63211;48.548;2.704;2022-09-03T04:01:44;100133.16;;;22.50;59.76
74680;BME280;63211;48.548;2.704;2022-09-03T04:04:11;100141.41;;;22.50;59.87
74680;BME280;63211;48.548;2.704;2022-09-03T04:06:38;100133.16;;;22.50;59.72
74680;BME280;63211;48.548;2.704;2022-09-03T04:09:05;100137.81;;;22.50;59.88
74680;BME280;63211;48.548;2.704;2022-09-03T04:11:31;100131.50;;;22.49;59.90
74680;BME280;63211;48.548;2.704;2022-09-03T04:13:58;100132.34;;;22.50;59.72
74680;BME280;63211;48.548;2.704;2022-09-03T04:16:26;100142.22;;;22.51;59.70
74680;BME280;63211;48.548;2.704;2022-09-03T04:18:54;100142.50;;;22.49;59.73
74680;BME280;63211;48.548;2.704;2022-09-03T04:21:23;100141.41;;;22.50;59.69
74680;BME280;63211;48.548;2.704;2022-09-03T04:23:50;100135.34;;;22.48;59.91
74680;BME280;63211;48.548;2.704;2022-09-03T04:26:19;100133.44;;;22.49;59.80
74680;BME280;63211;48.548;2.704;2022-09-03T04:28:46;100133.44;;;22.49;59.63
74680;BME280;63211;48.548;2.704;2022-09-03T04:31:17;100141.66;;;22.49;59.82
74680;BME280;63211;48.548;2.704;2022-09-03T04:33:45;100131.78;;;22.48;59.72
74680;BME280;63211;48.548;2.704;2022-09-03T04:36:13;100138.91;;;22.49;59.86
74680;BME280;63211;48.548;2.704;2022-09-03T04:38:42;100140.00;;;22.48;59.72
74680;BME280;63211;48.548;2.704;2022-09-03T04:41:10;100139.19;;;22.47;59.59
74680;BME280;63211;48.548;2.704;2022-09-03T04:43:37;100146.31;;;22.48;59.72
74680;BME280;63211;48.548;2.704;2022-09-03T04:46:06;100146.31;;;22.48;59.50
74680;BME280;63211;48.548;2.704;2022-09-03T04:48:34;100141.94;;;22.47;59.67
74680;BME280;63211;48.548;2.704;2022-09-03T04:51:05;100145.50;;;22.48;59.86
74680;BME280;63211;48.548;2.704;2022-09-03T04:53:33;100158.38;;;22.47;59.71
74680;BME280;63211;48.548;2.704;2022-09-03T04:56:00;100156.47;;;22.48;59.46
74680;BME280;63211;48.548;2.704;2022-09-03T04:58:27;100161.13;;;22.47;59.66
74680;BME280;63211;48.548;2.704;2022-09-03T05:00:54;100161.38;;;22.46;59.57
74680;BME280;63211;48.548;2.704;2022-09-03T05:03:21;100155.06;;;22.45;59.81
74680;BME280;63211;48.548;2.704;2022-09-03T05:05:52;100155.91;;;22.46;59.74
74680;BME280;63211;48.548;2.704;2022-09-03T05:08:20;100159.47;;;22.46;60.10
74680;BME280;63211;48.548;2.704;2022-09-03T05:10:47;100161.94;;;22.48;60.22
74680;BME280;63211;48.548;2.704;2022-09-03T05:13:14;100158.94;;;22.49;60.34
74680;BME280;63211;48.548;2.704;2022-09-03T05:15:40;100157.84;;;22.50;60.67
74680;BME280;63211;48.548;2.704;2022-09-03T05:18:09;100160.34;;;22.52;60.92
74680;BME280;63211;48.548;2.704;2022-09-03T05:20:37;100154.59;;;22.53;60.79
74680;BME280;63211;48.548;2.704;2022-09-03T05:23:04;100160.63;;;22.55;61.52
74680;BME280;63211;48.548;2.704;2022-09-03T05:25:32;100163.69;;;22.59;65.72
74680;BME280;63211;48.548;2.704;2022-09-03T05:27:59;100159.84;;;22.60;65.71
74680;BME280;63211;48.548;2.704;2022-09-03T05:30:26;100168.63;;;22.62;66.00
74680;BME280;63211;48.548;2.704;2022-09-03T05:35:19;100169.19;;;22.64;65.51
74680;BME280;63211;48.548;2.704;2022-09-03T05:37:45;100171.94;;;22.64;64.75
74680;BME280;63211;48.548;2.704;2022-09-03T05:40:12;100163.16;;;22.62;63.29
74680;BME280;63211;48.548;2.704;2022-09-03T05:42:40;100171.94;;;22.64;63.13
74680;BME280;63211;48.548;2.704;2022-09-03T05:45:08;100174.38;;;22.66;62.52
74680;BME280;63211;48.548;2.704;2022-09-03T05:47:36;100168.91;;;22.66;62.06
74680;BME280;63211;48.548;2.704;2022-09-03T05:50:05;100170.84;;;22.65;62.08
74680;BME280;63211;48.548;2.704;2022-09-03T05:52:33;100166.16;;;22.66;61.70
74680;BME280;63211;48.548;2.704;2022-09-03T05:54:59;100162.63;;;22.65;61.84
74680;BME280;63211;48.548;2.704;2022-09-03T05:57:26;100166.16;;;22.66;61.63
74680;BME280;63211;48.548;2.704;2022-09-03T05:59:55;100168.63;;;22.67;61.51
74680;BME280;63211;48.548;2.704;2022-09-03T06:02:21;100172.47;;;22.66;61.79
74680;BME280;63211;48.548;2.704;2022-09-03T06:04:48;100186.19;;;22.66;61.62
74680;BME280;63211;48.548;2.704;2022-09-03T06:07:15;100182.63;;;22.66;61.39
74680;BME280;63211;48.548;2.704;2022-09-03T06:09:41;100188.94;;;22.66;61.27
74680;BME280;63211;48.548;2.704;2022-09-03T06:12:08;100197.16;;;22.66;61.11
74680;BME280;63211;48.548;2.704;2022-09-03T06:14:35;100192.81;;;22.65;61.27
74680;BME280;63211;48.548;2.704;2022-09-03T06:17:03;100196.34;;;22.66;61.26
74680;BME280;63211;48.548;2.704;2022-09-03T06:19:29;100196.34;;;22.66;61.29
74680;BME280;63211;48.548;2.704;2022-09-03T06:21:56;100194.72;;;22.65;61.42
74680;BME280;63211;48.548;2.704;2022-09-03T06:24:22;100196.63;;;22.64;61.52
74680;BME280;63211;48.548;2.704;2022-09-03T06:26:51;100199.38;;;22.64;61.55
74680;BME280;63211;48.548;2.704;2022-09-03T06:29:18;100201.28;;;22.63;61.37
74680;BME280;63211;48.548;2.704;2022-09-03T06:31:45;100207.63;;;22.64;61.32
74680;BME280;63211;48.548;2.704;2022-09-03T06:34:14;100205.97;;;22.63;61.57
74680;BME280;63211;48.548;2.704;2022-09-03T06:36:42;100208.69;;;22.63;61.61
74680;BME280;63211;48.548;2.704;2022-09-03T06:39:09;100216.94;;;22.63;61.31
74680;BME280;63211;48.548;2.704;2022-09-03T06:41:36;100216.09;;;22.62;61.59
74680;BME280;63211;48.548;2.704;2022-09-03T06:44:04;100218.03;;;22.62;61.46
74680;BME280;63211;48.548;2.704;2022-09-03T06:46:32;100216.94;;;22.63;61.51
74680;BME280;63211;48.548;2.704;2022-09-03T06:48:59;100224.34;;;22.62;61.42
74680;BME280;63211;48.548;2.704;2022-09-03T06:51:28;100226.25;;;22.62;61.55
74680;BME280;63211;48.548;2.704;2022-09-03T06:53:59;100236.16;;;22.63;61.45
74680;BME280;63211;48.548;2.704;2022-09-03T06:56:25;100228.16;;;22.61;61.51
74680;BME280;63211;48.548;2.704;2022-09-03T06:58:53;100231.75;;;22.62;61.35
74680;BME280;63211;48.548;2.704;2022-09-03T07:01:22;100235.31;;;22.62;61.43
74680;BME280;63211;48.548;2.704;2022-09-03T07:03:52;100239.97;;;22.62;61.54
74680;BME280;63211;48.548;2.704;2022-09-03T07:06:22;100234.50;;;22.62;61.64
74680;BME280;63211;48.548;2.704;2022-09-03T07:08:51;100237.22;;;22.62;61.56
74680;BME280;63211;48.548;2.704;2022-09-03T07:11:19;100236.66;;;22.60;61.24
74680;BME280;63211;48.548;2.704;2022-09-03T07:13:49;100237.75;;;22.59;61.17
74680;BME280;63211;48.548;2.704;2022-09-03T07:16:17;100241.06;;;22.61;61.51
74680;BME280;63211;48.548;2.704;2022-09-03T07:18:44;100242.16;;;22.60;61.32
74680;BME280;63211;48.548;2.704;2022-09-03T07:23:40;100244.91;;;22.60;61.57
74680;BME280;63211;48.548;2.704;2022-09-03T07:26:10;100250.38;;;22.60;61.66
74680;BME280;63211;48.548;2.704;2022-09-03T07:28:39;100246.00;;;22.59;61.34
74680;BME280;63211;48.548;2.704;2022-09-03T07:31:09;100246.00;;;22.59;61.19
74680;BME280;63211;48.548;2.704;2022-09-03T07:33:36;100249.56;;;22.59;61.41
74680;BME280;63211;48.548;2.704;2022-09-03T07:36:04;100253.41;;;22.58;61.49
74680;BME280;63211;48.548;2.704;2022-09-03T07:40:59;100250.38;;;22.60;61.56
74680;BME280;63211;48.548;2.704;2022-09-03T07:43:27;100239.69;;;22.58;61.41
74680;BME280;63211;48.548;2.704;2022-09-03T07:45:54;100236.94;;;22.58;61.11
74680;BME280;63211;48.548;2.704;2022-09-03T07:48:22;100237.72;;;22.54;61.62
74680;BME280;63211;48.548;2.704;2022-09-03T07:50:49;100241.59;;;22.58;61.16
74680;BME280;63211;48.548;2.704;2022-09-03T07:53:16;100247.91;;;22.58;61.50
74680;BME280;63211;48.548;2.704;2022-09-03T07:55:44;100250.66;;;22.58;61.14
74680;BME280;63211;48.548;2.704;2022-09-03T07:58:11;100253.66;;;22.57;61.40
74680;BME280;63211;48.548;2.704;2022-09-03T08:00:39;100258.31;;;22.56;61.42
74680;BME280;63211;48.548;2.704;2022-09-03T08:03:06;100259.97;;;22.57;61.32
74680;BME280;63211;48.548;2.704;2022-09-03T08:05:34;100265.47;;;22.57;61.30
74680;BME280;63211;48.548;2.704;2022-09-03T08:08:02;100264.63;;;22.57;61.26
74680;BME280;63211;48.548;2.704;2022-09-03T08:10:28;100269.28;;;22.56;61.28
74680;BME280;63211;48.548;2.704;2022-09-03T08:12:57;100253.63;;;22.52;61.07
74680;BME280;63211;48.548;2.704;2022-09-03T08:15:24;100264.63;;;22.57;61.45
74680;BME280;63211;48.548;2.704;2022-09-03T08:17:52;100266.53;;;22.56;61.53
74680;BME280;63211;48.548;2.704;2022-09-03T08:20:18;100279.44;;;22.56;61.53
74680;BME280;63211;48.548;2.704;2022-09-03T08:22:45;100269.28;;;22.56;61.38
74680;BME280;63211;48.548;2.704;2022-09-03T08:25:12;100273.94;;;22.56;61.58
74680;BME280;63211;48.548;2.704;2022-09-03T08:27:39;100275.59;;;22.57;61.55
74680;BME280;63211;48.548;2.704;2022-09-03T08:30:07;100279.44;;;22.56;61.58
74680;BME280;63211;48.548;2.704;2022-09-03T08:32:36;100283.28;;;22.55;61.40
74680;BME280;63211;48.548;2.704;2022-09-03T08:35:06;100287.66;;;22.56;61.31
74680;BME280;63211;48.548;2.704;2022-09-03T08:37:33;100293.16;;;22.56;61.30
74680;BME280;63211;48.548;2.704;2022-09-03T08:40:00;100297.81;;;22.55;61.60
74680;BME280;63211;48.548;2.704;2022-09-03T08:42:36;100297.00;;;22.55;61.62
74680;BME280;63211;48.548;2.704;2022-09-03T08:45:14;100302.47;;;22.55;61.31
74680;BME280;63211;48.548;2.704;2022-09-03T08:47:44;100299.72;;;22.55;61.31
74680;BME280;63211;48.548;2.704;2022-09-03T08:50:21;100307.41;;;22.53;61.59
74680;BME280;63211;48.548;2.704;2022-09-03T08:52:51;100305.47;;;22.53;61.66
74680;BME280;63211;48.548;2.704;2022-09-03T08:55:22;100313.72;;;22.53;61.67
74680;BME280;63211;48.548;2.704;2022-09-03T08:57:55;100314.53;;;22.54;61.43
74680;BME280;63211;48.548;2.704;2022-09-03T09:00:23;100309.06;;;22.54;61.57
74680;BME280;63211;48.548;2.704;2022-09-03T09:03:06;100318.38;;;22.53;61.77
74680;BME280;63211;48.548;2.704;2022-09-03T09:05:47;100318.38;;;22.53;61.64
74680;BME280;63211;48.548;2.704;2022-09-03T09:08:23;100321.13;;;22.53;61.43
74680;BME280;63211;48.548;2.704;2022-09-03T09:11:03;100329.34;;;22.53;61.41
74680;BME280;63211;48.548;2.704;2022-09-03T09:13:39;100324.69;;;22.53;61.68
74680;BME280;63211;48.548;2.704;2022-09-03T09:16:13;100330.44;;;22.52;61.49
74680;BME280;63211;48.548;2.704;2022-09-03T09:18:54;100323.03;;;22.52;61.65
74680;BME280;63211;48.548;2.704;2022-09-03T09:21:29;100324.63;;;22.48;61.78
74680;BME280;63211;48.548;2.704;2022-09-03T09:24:00;100324.13;;;22.51;61.41
74680;BME280;63211;48.548;2.704;2022-09-03T09:26:28;100335.91;;;22.52;61.63
74680;BME280;63211;48.548;2.704;2022-09-03T09:28:57;100335.91;;;22.52;61.53
74680;BME280;63211;48.548;2.704;2022-09-03T09:31:27;100335.91;;;22.52;61.44
74680;BME280;63211;48.548;2.704;2022-09-03T09:33:55;100344.16;;;22.52;61.50
74680;BME280;63211;48.548;2.704;2022-09-03T09:36:27;100342.50;;;22.51;61.58
74680;BME280;63211;48.548;2.704;2022-09-03T09:38:54;100338.66;;;22.52;61.37
74680;BME280;63211;48.548;2.704;2022-09-03T09:41:21;100340.59;;;22.51;61.59
74680;BME280;63211;48.548;2.704;2022-09-03T09:43:58;100342.50;;;22.51;61.32
74680;BME280;63211;48.548;2.704;2022-09-03T09:46:32;100342.50;;;22.51;61.61
74680;BME280;63211;48.548;2.704;2022-09-03T09:49:00;100343.31;;;22.51;61.28
74680;BME280;63211;48.548;2.704;2022-09-03T09:51:29;100342.50;;;22.51;61.43
74680;BME280;63211;48.548;2.704;2022-09-03T09:54:01;100349.91;;;22.50;61.33
74680;BME280;63211;48.548;2.704;2022-09-03T09:56:28;100346.31;;;22.50;61.38
74680;BME280;63211;48.548;2.704;2022-09-03T09:59:02;100350.72;;;22.51;61.59
74680;BME280;63211;48.548;2.704;2022-09-03T10:01:29;100355.38;;;22.50;61.32
74680;BME280;63211;48.548;2.704;2022-09-03T10:03:57;100353.47;;;22.51;61.53
74680;BME280;63211;48.548;2.704;2022-09-03T10:06:25;100352.91;;;22.49;61.63
74680;BME280;63211;48.548;2.704;2022-09-03T10:09:13;100361.13;;;22.49;61.37
74680;BME280;63211;48.548;2.704;2022-09-03T10:11:43;100351.81;;;22.50;61.42
74680;BME280;63211;48.548;2.704;2022-09-03T10:14:23;100351.81;;;22.50;61.66
74680;BME280;63211;48.548;2.704;2022-09-03T10:16:58;100344.41;;;22.50;61.13
74680;BME280;63211;48.548;2.704;2022-09-03T10:19:30;100350.97;;;22.49;61.62
74680;BME280;63211;48.548;2.704;2022-09-03T10:22:06;100340.84;;;22.50;61.72
74680;BME280;63211;48.548;2.704;2022-09-03T10:24:43;100346.59;;;22.48;61.35
74680;BME280;63211;48.548;2.704;2022-09-03T10:27:15;100351.81;;;22.50;61.45
74680;BME280;63211;48.548;2.704;2022-09-03T10:29:42;100343.59;;;22.50;61.60
74680;BME280;63211;48.548;2.704;2022-09-03T10:32:18;100350.16;;;22.49;61.71
74680;BME280;63211;48.548;2.704;2022-09-03T10:34:53;100345.47;;;22.44;61.56
74680;BME280;63211;48.548;2.704;2022-09-03T10:37:31;100344.94;;;22.47;61.55
74680;BME280;63211;48.548;2.704;2022-09-03T10:40:14;100353.72;;;22.49;61.68
74680;BME280;63211;48.548;2.704;2022-09-03T10:42:47;100345.75;;;22.48;61.37
74680;BME280;63211;48.548;2.704;2022-09-03T10:45:31;100354.81;;;22.48;61.44
74680;BME280;63211;48.548;2.704;2022-09-03T10:50:46;100355.06;;;22.47;61.42
74680;BME280;63211;48.548;2.704;2022-09-03T10:53:26;100345.75;;;22.48;61.57
74680;BME280;63211;48.548;2.704;2022-09-03T10:56:01;100337.53;;;22.48;61.76
74680;BME280;63211;48.548;2.704;2022-09-03T11:01:32;100332.88;;;22.48;61.40
74680;BME280;63211;48.548;2.704;2022-09-03T11:04:16;100335.59;;;22.48;61.62
74680;BME280;63211;48.548;2.704;2022-09-03T11:06:50;100332.03;;;22.48;61.56
74680;BME280;63211;48.548;2.704;2022-09-03T11:09:21;100324.63;;;22.48;61.73
74680;BME280;63211;48.548;2.704;2022-09-03T11:11:53;100331.22;;;22.47;61.50
74680;BME280;63211;48.548;2.704;2022-09-03T11:14:31;100329.28;;;22.48;61.55
74680;BME280;63211;48.548;2.704;2022-09-03T11:17:04;100328.47;;;22.47;61.66
74680;BME280;63211;48.548;2.704;2022-09-03T11:19:35;100332.88;;;22.48;61.63
74680;BME280;63211;48.548;2.704;2022-09-03T11:22:06;100332.88;;;22.48;61.51
74680;BME280;63211;48.548;2.704;2022-09-03T11:24:34;100331.22;;;22.47;61.78
74680;BME280;63211;48.548;2.704;2022-09-03T11:27:15;100327.38;;;22.48;61.30
74680;BME280;63211;48.548;2.704;2022-09-03T11:29:50;100330.13;;;22.48;61.59
74680;BME280;63211;48.548;2.704;2022-09-03T11:32:21;100326.56;;;22.48;61.73
74680;BME280;63211;48.548;2.704;2022-09-03T11:34:51;100323.81;;;22.48;61.52
74680;BME280;63211;48.548;2.704;2022-09-03T11:37:21;100321.91;;;22.48;61.65
74680;BME280;63211;48.548;2.704;2022-09-03T11:39:56;100321.06;;;22.48;61.72
74680;BME280;63211;48.548;2.704;2022-09-03T11:42:30;100324.63;;;22.48;61.76
74680;BME280;63211;48.548;2.704;2022-09-03T11:45:10;100318.31;;;22.48;61.56
74680;BME280;63211;48.548;2.704;2022-09-03T11:47:40;100316.66;;;22.47;61.66
74680;BME280;63211;48.548;2.704;2022-09-03T11:50:17;100320.25;;;22.47;61.82
74680;BME280;63211;48.548;2.704;2022-09-03T11:52:45;100330.13;;;22.48;61.45
74680;BME280;63211;48.548;2.704;2022-09-03T11:55:23;100329.28;;;22.48;61.54
74680;BME280;63211;48.548;2.704;2022-09-03T11:57:51;100323.81;;;22.48;61.63
74680;BME280;63211;48.548;2.704;2022-09-03T12:00:19;100336.44;;;22.49;61.61
74680;BME280;63211;48.548;2.704;2022-09-03T12:02:50;100337.53;;;22.48;61.47
74680;BME280;63211;48.548;2.704;2022-09-03T12:05:25;100344.66;;;22.49;61.56
74680;BME280;63211;48.548;2.704;2022-09-03T12:08:24;100338.34;;;22.48;61.62
74680;BME280;63211;48.548;2.704;2022-09-03T12:11:06;100352.06;;;22.48;61.70
74680;BME280;63211;48.548;2.704;2022-09-03T12:13:41;100346.59;;;22.48;61.51
74680;BME280;63211;48.548;2.704;2022-09-03T12:16:29;100350.16;;;22.49;61.71
74680;BME280;63211;48.548;2.704;2022-09-03T12:19:02;100340.00;;;22.49;61.77
74680;BME280;63211;48.548;2.704;2022-09-03T12:21:36;100340.00;;;22.49;61.39
74680;BME280;63211;48.548;2.704;2022-09-03T12:24:04;100344.66;;;22.49;61.81
74680;BME280;63211;48.548;2.704;2022-09-03T12:26:38;100336.69;;;22.47;61.64
74680;BME280;63211;48.548;2.704;2022-09-03T12:29:19;100340.00;;;22.49;61.42
74680;BME280;63211;48.548;2.704;2022-09-03T12:31:48;100338.09;;;22.50;61.61
74680;BME280;63211;48.548;2.704;2022-09-03T12:34:17;100340.00;;;22.49;61.61
74680;BME280;63211;48.548;2.704;2022-09-03T12:36:45;100338.09;;;22.50;61.61
74680;BME280;63211;48.548;2.704;2022-09-03T12:39:14;100340.84;;;22.50;61.47
74680;BME280;63211;48.548;2.704;2022-09-03T12:41:54;100350.97;;;22.49;61.79
74680;BME280;63211;48.548;2.704;2022-09-03T12:44:25;100349.31;;;22.48;61.84
74680;BME280;63211;48.548;2.704;2022-09-03T12:47:00;100361.97;;;22.49;61.68
74680;BME280;63211;48.548;2.704;2022-09-03T12:49:33;100353.72;;;22.49;61.58
74680;BME280;63211;48.548;2.704;2022-09-03T12:52:01;100357.31;;;22.50;61.90
74680;BME280;63211;48.548;2.704;2022-09-03T12:54:29;100352.91;;;22.49;61.81
74680;BME280;63211;48.548;2.704;2022-09-03T12:56:57;100358.13;;;22.50;61.95
74680;BME280;63211;48.548;2.704;2022-09-03T12:59:31;100349.91;;;22.50;61.84
74680;BME280;63211;48.548;2.704;2022-09-03T13:02:04;100354.56;;;22.50;61.60
74680;BME280;63211;48.548;2.704;2022-09-03T13:04:32;100365.53;;;22.50;61.66
74680;BME280;63211;48.548;2.704;2022-09-03T13:07:02;100357.31;;;22.50;61.85
74680;BME280;63211;48.548;2.704;2022-09-03T13:09:32;100363.63;;;22.50;61.54
74680;BME280;63211;48.548;2.704;2022-09-03T13:12:01;100361.69;;;22.51;61.59
74680;BME280;63211;48.548;2.704;2022-09-03T13:14:41;100356.22;;;22.51;61.52
74680;BME280;63211;48.548;2.704;2022-09-03T13:17:18;100360.88;;;22.50;61.52
74680;BME280;63211;48.548;2.704;2022-09-03T13:20:01;100357.31;;;22.50;61.72
74680;BME280;63211;48.548;2.704;2022-09-03T13:22:36;100358.13;;;22.50;61.90
74680;BME280;63211;48.548;2.704;2022-09-03T13:25:15;100357.31;;;22.50;61.62